sensor_id;sensor_type;location;lat;lon;timestamp;pressure;altitude;pressure_sealevel;temperature;humidity
74675;BME280;63200;48.810;12.352;2023-12-04T00:01:47;98004.19;;;-18.62;100.00
74675;BME280;63200;48.810;12.352;2023-12-04T00:04:13;98004.66;;;-18.70;100.00
74675;BME280;63200;48.810;12.352;2023-12-04T00:06:38;98011.25;;;-18.80;100.00
74675;BME280;63200;48.810;12.352;2023-12-04T00:09:03;97941.53;;;-19.28;100.00
74675;BME280;63200;48.810;12.352;2023-12-04T00:11:29;97936.97;;;-19.39;100.00
74675;BME280;63200;48.810;12.352;2023-12-04T00:13:54;97999.00;;;-19.07;100.00
74675;BME280;63200;48.810;12.352;2023-12-04T00:16:19;98001.59;;;-19.07;100.00
74675;BME280;63200;48.810;12.352;2023-12-04T00:18:45;97998.25;;;-19.09;100.00
74675;BME280;63200;48.810;12.352;2023-12-04T00:21:10;97997.16;;;-19.05;100.00
74675;BME280;63200;48.810;12.352;2023-12-04T00:23:35;97990.97;;;-19.02;100.00
74675;BME280;63200;48.810;12.352;2023-12-04T00:26:01;97984.19;;;-19.05;100.00
74675;BME280;63200;48.810;12.352;2023-12-04T00:28:27;97980.66;;;-19.18;100.00
74675;BME280;63200;48.810;12.352;2023-12-04T00:30:54;97983.84;;;-19.29;100.00
74675;BME280;63200;48.810;12.352;2023-12-04T00:33:19;97973.00;;;-19.36;100.00
74675;BME280;63200;48.810;12.352;2023-12-04T00:35:44;97970.91;;;-19.45;100.00
74675;BME280;63200;48.810;12.352;2023-12-04T00:38:09;97970.09;;;-19.46;100.00
74675;BME280;63200;48.810;12.352;2023-12-04T00:40:35;97974.19;;;-19.41;100.00
74675;BME280;63200;48.810;12.352;2023-12-04T00:43:00;97979.09;;;-19.37;100.00
74675;BME280;63200;48.810;12.352;2023-12-04T00:45:25;97970.81;;;-19.27;100.00
74675;BME280;63200;48.810;12.352;2023-12-04T00:47:51;97912.88;;;-19.55;100.00
74675;BME280;63200;48.810;12.352;2023-12-04T00:50:16;97921.06;;;-19.33;100.00
74675;BME280;63200;48.810;12.352;2023-12-04T00:52:41;97961.16;;;-18.93;100.00
74675;BME280;63200;48.810;12.352;2023-12-04T00:55:07;97966.19;;;-19.06;100.00
74675;BME280;63200;48.810;12.352;2023-12-04T00:57:32;97950.13;;;-19.27;100.00
74675;BME280;63200;48.810;12.352;2023-12-04T00:59:57;97952.97;;;-19.32;100.00
74675;BME280;63200;48.810;12.352;2023-12-04T01:02:23;97952.56;;;-19.24;100.00
74675;BME280;63200;48.810;12.352;2023-12-04T01:04:48;97949.94;;;-19.08;100.00
74675;BME280;63200;48.810;12.352;2023-12-04T01:07:13;97886.19;;;-19.25;100.00
74675;BME280;63200;48.810;12.352;2023-12-04T01:09:39;97933.38;;;-19.06;100.00
74675;BME280;63200;48.810;12.352;2023-12-04T01:12:04;97940.25;;;-19.21;100.00
74675;BME280;63200;48.810;12.352;2023-12-04T01:14:30;97930.69;;;-19.35;100.00
74675;BME280;63200;48.810;12.352;2023-12-04T01:16:56;97850.50;;;-19.96;100.00
74675;BME280;63200;48.810;12.352;2023-12-04T01:19:21;97921.44;;;-19.39;100.00
74675;BME280;63200;48.810;12.352;2023-12-04T01:21:46;97917.91;;;-19.38;100.00
74675;BME280;63200;48.810;12.352;2023-12-04T01:24:12;97855.31;;;-19.89;100.00
74675;BME280;63200;48.810;12.352;2023-12-04T01:26:38;97844.16;;;-20.06;100.00
74675;BME280;63200;48.810;12.352;2023-12-04T01:29:03;97915.97;;;-19.65;100.00
74675;BME280;63200;48.810;12.352;2023-12-04T01:31:28;97906.28;;;-19.61;100.00
74675;BME280;63200;48.810;12.352;2023-12-04T01:33:54;97904.28;;;-19.56;100.00
74675;BME280;63200;48.810;12.352;2023-12-04T01:36:19;97891.44;;;-19.57;100.00
74675;BME280;63200;48.810;12.352;2023-12-04T01:38:44;97899.50;;;-19.48;100.00
74675;BME280;63200;48.810;12.352;2023-12-04T01:41:10;97897.59;;;-19.44;100.00
74675;BME280;63200;48.810;12.352;2023-12-04T01:43:35;97882.72;;;-19.40;100.00
74675;BME280;63200;48.810;12.352;2023-12-04T01:46:01;97857.38;;;-19.50;100.00
74675;BME280;63200;48.810;12.352;2023-12-04T01:48:27;97802.53;;;-19.71;100.00
74675;BME280;63200;48.810;12.352;2023-12-04T01:50:53;97887.16;;;-19.12;100.00
74675;BME280;63200;48.810;12.352;2023-12-04T01:53:19;97878.84;;;-19.03;100.00
74675;BME280;63200;48.810;12.352;2023-12-04T01:55:45;97800.44;;;-19.34;100.00
74675;BME280;63200;48.810;12.352;2023-12-04T01:58:11;97853.69;;;-18.86;100.00
74675;BME280;63200;48.810;12.352;2023-12-04T02:00:37;97846.56;;;-19.12;100.00
74675;BME280;63200;48.810;12.352;2023-12-04T02:03:03;97843.31;;;-19.30;100.00
74675;BME280;63200;48.810;12.352;2023-12-04T02:05:29;97793.16;;;-19.72;100.00
74675;BME280;63200;48.810;12.352;2023-12-04T02:07:54;97800.53;;;-19.66;100.00
74675;BME280;63200;48.810;12.352;2023-12-04T02:10:21;97848.84;;;-19.36;100.00
74675;BME280;63200;48.810;12.352;2023-12-04T02:12:46;97847.75;;;-19.32;100.00
74675;BME280;63200;48.810;12.352;2023-12-04T02:15:11;97844.81;;;-19.25;100.00
74675;BME280;63200;48.810;12.352;2023-12-04T02:17:37;97774.91;;;-19.54;100.00
74675;BME280;63200;48.810;12.352;2023-12-04T02:20:04;97824.13;;;-19.11;100.00
74675;BME280;63200;48.810;12.352;2023-12-04T02:22:30;97817.56;;;-19.02;100.00
74675;BME280;63200;48.810;12.352;2023-12-04T02:24:55;97813.41;;;-18.90;100.00
74675;BME280;63200;48.810;12.352;2023-12-04T02:27:27;97815.81;;;-18.87;100.00
74675;BME280;63200;48.810;12.352;2023-12-04T02:29:59;97814.03;;;-18.87;100.00
74675;BME280;63200;48.810;12.352;2023-12-04T02:32:28;97815.41;;;-18.81;100.00
74675;BME280;63200;48.810;12.352;2023-12-04T02:34:54;97812.00;;;-18.82;100.00
74675;BME280;63200;48.810;12.352;2023-12-04T02:37:21;97745.75;;;-19.13;100.00
74675;BME280;63200;48.810;12.352;2023-12-04T02:39:48;97806.94;;;-18.83;99.03
74675;BME280;63200;48.810;12.352;2023-12-04T02:42:14;97760.91;;;-19.07;99.42
74675;BME280;63200;48.810;12.352;2023-12-04T02:44:42;97802.75;;;-18.71;99.67
74675;BME280;63200;48.810;12.352;2023-12-04T02:47:08;97792.41;;;-18.71;98.68
74675;BME280;63200;48.810;12.352;2023-12-04T02:49:33;97787.59;;;-18.78;96.46
74675;BME280;63200;48.810;12.352;2023-12-04T02:51:58;97740.88;;;-19.03;96.71
74675;BME280;63200;48.810;12.352;2023-12-04T02:54:24;97757.22;;;-18.88;97.81
74675;BME280;63200;48.810;12.352;2023-12-04T02:56:50;97784.19;;;-18.64;97.74
74675;BME280;63200;48.810;12.352;2023-12-04T02:59:15;97780.06;;;-18.53;100.00
74675;BME280;63200;48.810;12.352;2023-12-04T03:01:40;97785.53;;;-18.43;100.00
74675;BME280;63200;48.810;12.352;2023-12-04T03:04:06;97785.22;;;-18.39;100.00
74675;BME280;63200;48.810;12.352;2023-12-04T03:06:31;97782.06;;;-18.30;100.00
74675;BME280;63200;48.810;12.352;2023-12-04T03:08:56;97778.88;;;-18.20;100.00
74675;BME280;63200;48.810;12.352;2023-12-04T03:11:24;97780.06;;;-18.12;100.00
74675;BME280;63200;48.810;12.352;2023-12-04T03:13:49;97780.53;;;-18.05;100.00
74675;BME280;63200;48.810;12.352;2023-12-04T03:16:18;97779.88;;;-18.08;100.00
74675;BME280;63200;48.810;12.352;2023-12-04T03:18:44;97774.69;;;-18.08;100.00
74675;BME280;63200;48.810;12.352;2023-12-04T03:21:10;97760.47;;;-18.16;100.00
74675;BME280;63200;48.810;12.352;2023-12-04T03:23:36;97751.84;;;-18.16;100.00
74675;BME280;63200;48.810;12.352;2023-12-04T03:26:01;97743.22;;;-18.44;100.00
74675;BME280;63200;48.810;12.352;2023-12-04T03:28:26;97743.81;;;-18.53;99.42
74675;BME280;63200;48.810;12.352;2023-12-04T03:30:51;97739.66;;;-18.56;99.63
74675;BME280;63200;48.810;12.352;2023-12-04T03:33:17;97697.81;;;-18.77;99.98
74675;BME280;63200;48.810;12.352;2023-12-04T03:35:43;97705.56;;;-18.77;99.67
74675;BME280;63200;48.810;12.352;2023-12-04T03:38:08;97735.31;;;-18.55;99.87
74675;BME280;63200;48.810;12.352;2023-12-04T03:40:33;97726.16;;;-18.61;99.11
74675;BME280;63200;48.810;12.352;2023-12-04T03:42:59;97690.09;;;-18.91;99.44
74675;BME280;63200;48.810;12.352;2023-12-04T03:45:24;97738.94;;;-18.58;100.00
74675;BME280;63200;48.810;12.352;2023-12-04T03:47:49;97736.13;;;-18.55;99.71
74675;BME280;63200;48.810;12.352;2023-12-04T03:50:14;97728.00;;;-18.49;99.40
74675;BME280;63200;48.810;12.352;2023-12-04T03:52:40;97696.94;;;-18.63;98.57
74675;BME280;63200;48.810;12.352;2023-12-04T03:55:07;97716.50;;;-18.45;98.00
74675;BME280;63200;48.810;12.352;2023-12-04T03:57:33;97718.00;;;-18.55;97.63
74675;BME280;63200;48.810;12.352;2023-12-04T03:59:58;97727.66;;;-18.57;100.00
74675;BME280;63200;48.810;12.352;2023-12-04T04:02:23;97731.41;;;-18.48;100.00
74675;BME280;63200;48.810;12.352;2023-12-04T04:04:49;97728.97;;;-18.37;100.00
74675;BME280;63200;48.810;12.352;2023-12-04T04:07:16;97721.53;;;-18.29;100.00
74675;BME280;63200;48.810;12.352;2023-12-04T04:09:41;97726.63;;;-18.27;100.00
74675;BME280;63200;48.810;12.352;2023-12-04T04:12:06;97729.53;;;-18.32;100.00
74675;BME280;63200;48.810;12.352;2023-12-04T04:14:32;97723.81;;;-18.37;100.00
74675;BME280;63200;48.810;12.352;2023-12-04T04:16:57;97723.16;;;-18.40;100.00
74675;BME280;63200;48.810;12.352;2023-12-04T04:19:22;97718.78;;;-18.40;100.00
74675;BME280;63200;48.810;12.352;2023-12-04T04:21:47;97709.38;;;-18.41;99.66
74675;BME280;63200;48.810;12.352;2023-12-04T04:24:13;97706.53;;;-18.51;98.52
74675;BME280;63200;48.810;12.352;2023-12-04T04:26:38;97714.28;;;-18.51;98.11
74675;BME280;63200;48.810;12.352;2023-12-04T04:29:03;97713.38;;;-18.50;97.67
74675;BME280;63200;48.810;12.352;2023-12-04T04:31:28;97706.97;;;-18.44;98.50
74675;BME280;63200;48.810;12.352;2023-12-04T04:33:54;97710.50;;;-18.45;98.29
74675;BME280;63200;48.810;12.352;2023-12-04T04:36:19;97697.84;;;-18.50;97.72
74675;BME280;63200;48.810;12.352;2023-12-04T04:38:44;97691.09;;;-18.52;97.02
74675;BME280;63200;48.810;12.352;2023-12-04T04:41:15;97685.19;;;-18.54;97.98
74675;BME280;63200;48.810;12.352;2023-12-04T04:43:41;97675.16;;;-18.46;98.71
74675;BME280;63200;48.810;12.352;2023-12-04T04:46:07;97672.81;;;-18.36;98.64
74675;BME280;63200;48.810;12.352;2023-12-04T04:48:32;97662.88;;;-18.30;97.79
74675;BME280;63200;48.810;12.352;2023-12-04T04:50:57;97668.59;;;-18.24;97.52
74675;BME280;63200;48.810;12.352;2023-12-04T04:53:23;97655.78;;;-18.13;98.52
74675;BME280;63200;48.810;12.352;2023-12-04T04:55:48;97654.44;;;-18.06;100.00
74675;BME280;63200;48.810;12.352;2023-12-04T04:58:13;97659.72;;;-18.07;100.00
74675;BME280;63200;48.810;12.352;2023-12-04T05:00:39;97660.97;;;-17.87;100.00
74675;BME280;63200;48.810;12.352;2023-12-04T05:03:04;97655.28;;;-17.80;100.00
74675;BME280;63200;48.810;12.352;2023-12-04T05:05:29;97657.34;;;-17.72;100.00
74675;BME280;63200;48.810;12.352;2023-12-04T05:07:54;97649.97;;;-17.78;100.00
74675;BME280;63200;48.810;12.352;2023-12-04T05:10:20;97571.06;;;-18.38;98.43
74675;BME280;63200;48.810;12.352;2023-12-04T05:12:45;97655.78;;;-17.87;99.56
74675;BME280;63200;48.810;12.352;2023-12-04T05:15:10;97648.84;;;-17.87;100.00
74675;BME280;63200;48.810;12.352;2023-12-04T05:17:36;97646.25;;;-17.87;98.72
74675;BME280;63200;48.810;12.352;2023-12-04T05:20:01;97586.34;;;-18.08;99.71
74675;BME280;63200;48.810;12.352;2023-12-04T05:22:26;97630.78;;;-17.75;99.60
74675;BME280;63200;48.810;12.352;2023-12-04T05:24:51;97620.53;;;-17.77;99.15
74675;BME280;63200;48.810;12.352;2023-12-04T05:27:17;97624.03;;;-17.91;96.64
74675;BME280;63200;48.810;12.352;2023-12-04T05:29:42;97624.38;;;-17.96;94.97
74675;BME280;63200;48.810;12.352;2023-12-04T05:32:07;97624.78;;;-18.02;94.58
74675;BME280;63200;48.810;12.352;2023-12-04T05:34:32;97625.63;;;-18.01;95.04
74675;BME280;63200;48.810;12.352;2023-12-04T05:36:58;97624.38;;;-17.96;96.85
74675;BME280;63200;48.810;12.352;2023-12-04T05:39:23;97626.00;;;-17.82;98.73
74675;BME280;63200;48.810;12.352;2023-12-04T05:41:48;97618.97;;;-17.67;99.74
74675;BME280;63200;48.810;12.352;2023-12-04T05:44:14;97629.75;;;-17.47;100.00
74675;BME280;63200;48.810;12.352;2023-12-04T05:46:39;97572.25;;;-17.41;100.00
74675;BME280;63200;48.810;12.352;2023-12-04T05:49:04;97555.22;;;-17.45;100.00
74675;BME280;63200;48.810;12.352;2023-12-04T05:51:30;97620.25;;;-17.22;100.00
74675;BME280;63200;48.810;12.352;2023-12-04T05:53:55;97604.81;;;-17.37;100.00
74675;BME280;63200;48.810;12.352;2023-12-04T05:56:21;97544.50;;;-17.78;100.00
74675;BME280;63200;48.810;12.352;2023-12-04T05:58:46;97542.38;;;-17.60;100.00
74675;BME280;63200;48.810;12.352;2023-12-04T06:01:11;97612.34;;;-17.08;100.00
74675;BME280;63200;48.810;12.352;2023-12-04T06:03:37;97597.03;;;-17.00;100.00
74675;BME280;63200;48.810;12.352;2023-12-04T06:06:03;97603.25;;;-16.89;100.00
74675;BME280;63200;48.810;12.352;2023-12-04T06:08:28;97591.09;;;-16.89;100.00
74675;BME280;63200;48.810;12.352;2023-12-04T06:10:54;97601.00;;;-16.83;100.00
74675;BME280;63200;48.810;12.352;2023-12-04T06:13:19;97596.50;;;-16.68;100.00
74675;BME280;63200;48.810;12.352;2023-12-04T06:15:44;97522.63;;;-17.12;100.00
74675;BME280;63200;48.810;12.352;2023-12-04T06:18:10;97600.66;;;-16.65;100.00
74675;BME280;63200;48.810;12.352;2023-12-04T06:20:35;97592.88;;;-16.54;100.00
74675;BME280;63200;48.810;12.352;2023-12-04T06:23:00;97598.59;;;-16.49;100.00
74675;BME280;63200;48.810;12.352;2023-12-04T06:25:26;97583.25;;;-16.40;100.00
74675;BME280;63200;48.810;12.352;2023-12-04T06:27:52;97580.78;;;-16.42;100.00
74675;BME280;63200;48.810;12.352;2023-12-04T06:30:18;97510.84;;;-16.81;100.00
74675;BME280;63200;48.810;12.352;2023-12-04T06:32:43;97565.31;;;-16.32;100.00
74675;BME280;63200;48.810;12.352;2023-12-04T06:35:09;97568.19;;;-16.24;100.00
74675;BME280;63200;48.810;12.352;2023-12-04T06:37:38;97550.13;;;-16.14;100.00
74675;BME280;63200;48.810;12.352;2023-12-04T06:40:03;97565.53;;;-16.00;100.00
74675;BME280;63200;48.810;12.352;2023-12-04T06:42:29;97574.63;;;-15.94;100.00
74675;BME280;63200;48.810;12.352;2023-12-04T06:44:55;97585.75;;;-15.92;100.00
74675;BME280;63200;48.810;12.352;2023-12-04T06:47:22;97590.16;;;-15.81;100.00
74675;BME280;63200;48.810;12.352;2023-12-04T06:49:48;97584.78;;;-15.80;100.00
74675;BME280;63200;48.810;12.352;2023-12-04T06:52:13;97557.75;;;-15.88;100.00
74675;BME280;63200;48.810;12.352;2023-12-04T06:54:38;97581.84;;;-15.64;100.00
74675;BME280;63200;48.810;12.352;2023-12-04T06:57:04;97588.13;;;-15.55;100.00
74675;BME280;63200;48.810;12.352;2023-12-04T06:59:29;97581.75;;;-15.39;100.00
74675;BME280;63200;48.810;12.352;2023-12-04T07:01:54;97575.00;;;-15.19;100.00
74675;BME280;63200;48.810;12.352;2023-12-04T07:04:20;97535.47;;;-15.25;100.00
74675;BME280;63200;48.810;12.352;2023-12-04T07:06:48;97565.25;;;-14.95;100.00
74675;BME280;63200;48.810;12.352;2023-12-04T07:09:14;97511.78;;;-15.21;100.00
74675;BME280;63200;48.810;12.352;2023-12-04T07:11:40;97564.41;;;-14.84;100.00
74675;BME280;63200;48.810;12.352;2023-12-04T07:14:05;97558.06;;;-14.70;100.00
74675;BME280;63200;48.810;12.352;2023-12-04T07:16:30;97563.03;;;-14.67;100.00
74675;BME280;63200;48.810;12.352;2023-12-04T07:18:55;97546.69;;;-14.48;100.00
74675;BME280;63200;48.810;12.352;2023-12-04T07:21:21;97539.25;;;-14.31;100.00
74675;BME280;63200;48.810;12.352;2023-12-04T07:23:46;97528.72;;;-14.09;98.57
74675;BME280;63200;48.810;12.352;2023-12-04T07:26:12;97528.31;;;-13.83;97.27
74675;BME280;63200;48.810;12.352;2023-12-04T07:28:37;97527.34;;;-13.51;98.02
74675;BME280;63200;48.810;12.352;2023-12-04T07:31:03;97518.59;;;-13.20;99.37
74675;BME280;63200;48.810;12.352;2023-12-04T07:33:28;97501.06;;;-12.89;97.87
74675;BME280;63200;48.810;12.352;2023-12-04T07:35:54;97506.59;;;-12.53;100.00
74675;BME280;63200;48.810;12.352;2023-12-04T07:38:19;97486.72;;;-12.16;100.00
74675;BME280;63200;48.810;12.352;2023-12-04T07:40:45;97498.19;;;-11.90;100.00
74675;BME280;63200;48.810;12.352;2023-12-04T07:43:11;97485.47;;;-11.75;100.00
74675;BME280;63200;48.810;12.352;2023-12-04T07:45:36;97493.09;;;-11.53;100.00
74675;BME280;63200;48.810;12.352;2023-12-04T07:48:05;97493.63;;;-11.40;100.00
74675;BME280;63200;48.810;12.352;2023-12-04T07:50:31;97493.63;;;-11.12;100.00
74675;BME280;63200;48.810;12.352;2023-12-04T07:52:56;97479.16;;;-10.62;100.00
74675;BME280;63200;48.810;12.352;2023-12-04T07:55:21;97482.72;;;-10.27;97.29
74675;BME280;63200;48.810;12.352;2023-12-04T07:57:47;97484.19;;;-10.07;93.98
74675;BME280;63200;48.810;12.352;2023-12-04T08:00:13;97474.97;;;-9.84;91.39
74675;BME280;63200;48.810;12.352;2023-12-04T08:02:39;97492.97;;;-9.63;86.91
74675;BME280;63200;48.810;12.352;2023-12-04T08:05:04;97486.56;;;-9.69;83.46
74675;BME280;63200;48.810;12.352;2023-12-04T08:07:30;97475.72;;;-9.92;77.91
74675;BME280;63200;48.810;12.352;2023-12-04T08:09:55;97482.59;;;-9.73;76.82
74675;BME280;63200;48.810;12.352;2023-12-04T08:12:20;97475.84;;;-9.76;77.45
74675;BME280;63200;48.810;12.352;2023-12-04T08:14:46;97465.72;;;-9.62;78.63
74675;BME280;63200;48.810;12.352;2023-12-04T08:17:11;97460.78;;;-9.31;78.88
74675;BME280;63200;48.810;12.352;2023-12-04T08:19:37;97431.13;;;-8.90;76.74
74675;BME280;63200;48.810;12.352;2023-12-04T08:22:03;97447.09;;;-8.34;73.79
74675;BME280;63200;48.810;12.352;2023-12-04T08:24:28;97446.28;;;-8.51;74.33
74675;BME280;63200;48.810;12.352;2023-12-04T08:26:54;97456.66;;;-8.58;74.55
74675;BME280;63200;48.810;12.352;2023-12-04T08:29:19;97452.19;;;-8.74;76.27
74675;BME280;63200;48.810;12.352;2023-12-04T08:31:44;97450.53;;;-8.91;77.95
74675;BME280;63200;48.810;12.352;2023-12-04T08:34:09;97456.66;;;-8.74;79.59
74675;BME280;63200;48.810;12.352;2023-12-04T08:36:35;97435.59;;;-8.49;79.43
74675;BME280;63200;48.810;12.352;2023-12-04T08:39:00;97466.47;;;-7.85;76.87
74675;BME280;63200;48.810;12.352;2023-12-04T08:41:25;97462.28;;;-7.55;75.14
74675;BME280;63200;48.810;12.352;2023-12-04T08:43:53;97459.53;;;-7.30;73.78
74675;BME280;63200;48.810;12.352;2023-12-04T08:46:19;97464.25;;;-7.17;72.12
74675;BME280;63200;48.810;12.352;2023-12-04T08:48:45;97461.88;;;-7.04;71.68
74675;BME280;63200;48.810;12.352;2023-12-04T08:51:15;97462.13;;;-6.59;71.32
74675;BME280;63200;48.810;12.352;2023-12-04T08:53:41;97457.53;;;-6.42;70.75
74675;BME280;63200;48.810;12.352;2023-12-04T08:56:07;97466.91;;;-6.16;70.12
74675;BME280;63200;48.810;12.352;2023-12-04T08:58:33;97458.38;;;-6.04;70.29
74675;BME280;63200;48.810;12.352;2023-12-04T09:00:58;97456.09;;;-6.07;69.51
74675;BME280;63200;48.810;12.352;2023-12-04T09:03:23;97445.91;;;-6.33;69.27
74675;BME280;63200;48.810;12.352;2023-12-04T09:05:49;97449.16;;;-6.46;70.00
74675;BME280;63200;48.810;12.352;2023-12-04T09:08:17;97454.00;;;-6.58;70.61
74675;BME280;63200;48.810;12.352;2023-12-04T09:10:43;97451.19;;;-6.56;70.71
74675;BME280;63200;48.810;12.352;2023-12-04T09:13:08;97447.03;;;-6.27;70.04
74675;BME280;63200;48.810;12.352;2023-12-04T09:15:34;97439.34;;;-6.37;69.66
74675;BME280;63200;48.810;12.352;2023-12-04T09:17:59;97437.59;;;-6.45;69.63
74675;BME280;63200;48.810;12.352;2023-12-04T09:20:25;97423.94;;;-6.72;69.84
74675;BME280;63200;48.810;12.352;2023-12-04T09:22:50;97421.28;;;-6.72;70.75
74675;BME280;63200;48.810;12.352;2023-12-04T09:25:16;97411.53;;;-6.48;71.18
74675;BME280;63200;48.810;12.352;2023-12-04T09:27:41;97406.97;;;-6.01;70.29
74675;BME280;63200;48.810;12.352;2023-12-04T09:30:07;97401.50;;;-5.84;69.23
74675;BME280;63200;48.810;12.352;2023-12-04T09:32:32;97384.09;;;-5.79;67.04
74675;BME280;63200;48.810;12.352;2023-12-04T09:34:58;97392.00;;;-5.34;66.40
74675;BME280;63200;48.810;12.352;2023-12-04T09:37:23;97401.28;;;-4.87;63.71
74675;BME280;63200;48.810;12.352;2023-12-04T09:39:49;97385.19;;;-4.42;60.86
74675;BME280;63200;48.810;12.352;2023-12-04T09:42:15;97350.09;;;-4.44;59.29
74675;BME280;63200;48.810;12.352;2023-12-04T09:44:43;97399.00;;;-4.18;58.81
74675;BME280;63200;48.810;12.352;2023-12-04T09:47:09;97375.44;;;-4.35;59.59
74675;BME280;63200;48.810;12.352;2023-12-04T09:49:35;97384.75;;;-5.25;59.43
74675;BME280;63200;48.810;12.352;2023-12-04T09:52:01;97370.41;;;-5.82;60.73
74675;BME280;63200;48.810;12.352;2023-12-04T09:54:30;97399.81;;;-6.45;62.33
74675;BME280;63200;48.810;12.352;2023-12-04T09:56:56;97399.66;;;-5.69;63.38
74675;BME280;63200;48.810;12.352;2023-12-04T09:59:24;97399.34;;;-5.29;62.14
74675;BME280;63200;48.810;12.352;2023-12-04T10:01:51;97333.81;;;-5.49;61.10
74675;BME280;63200;48.810;12.352;2023-12-04T10:04:16;97332.69;;;-5.40;59.77
74675;BME280;63200;48.810;12.352;2023-12-04T10:06:43;97363.09;;;-5.95;59.62
74675;BME280;63200;48.810;12.352;2023-12-04T10:09:10;97368.53;;;-6.57;60.77
74675;BME280;63200;48.810;12.352;2023-12-04T10:11:40;97356.16;;;-6.79;62.55
74675;BME280;63200;48.810;12.352;2023-12-04T10:14:17;97363.38;;;-6.73;63.55
74675;BME280;63200;48.810;12.352;2023-12-04T10:16:43;97353.63;;;-6.73;63.53
74675;BME280;63200;48.810;12.352;2023-12-04T10:19:23;97346.47;;;-6.64;62.87
74675;BME280;63200;48.810;12.352;2023-12-04T10:21:51;97345.22;;;-6.53;63.66
74675;BME280;63200;48.810;12.352;2023-12-04T10:24:32;97339.44;;;-6.04;65.62
74675;BME280;63200;48.810;12.352;2023-12-04T10:26:59;97346.75;;;-6.06;66.12
74675;BME280;63200;48.810;12.352;2023-12-04T10:29:27;97346.91;;;-6.22;66.04
74675;BME280;63200;48.810;12.352;2023-12-04T10:31:52;97341.19;;;-6.11;65.15
74675;BME280;63200;48.810;12.352;2023-12-04T10:34:20;97340.66;;;-6.44;65.09
74675;BME280;63200;48.810;12.352;2023-12-04T10:36:46;97340.91;;;-6.16;65.36
74675;BME280;63200;48.810;12.352;2023-12-04T10:39:11;97332.97;;;-5.13;63.84
74675;BME280;63200;48.810;12.352;2023-12-04T10:41:38;97314.13;;;-4.25;62.73
74675;BME280;63200;48.810;12.352;2023-12-04T10:44:03;97316.09;;;-3.70;61.74
74675;BME280;63200;48.810;12.352;2023-12-04T10:46:29;97318.31;;;-3.19;59.89
74675;BME280;63200;48.810;12.352;2023-12-04T10:48:56;97317.91;;;-3.22;60.60
74675;BME280;63200;48.810;12.352;2023-12-04T10:51:22;97314.41;;;-3.29;60.37
74675;BME280;63200;48.810;12.352;2023-12-04T10:53:49;97309.41;;;-3.59;61.99
74675;BME280;63200;48.810;12.352;2023-12-04T10:56:19;97304.66;;;-4.12;61.98
74675;BME280;63200;48.810;12.352;2023-12-04T10:58:47;97304.66;;;-4.69;64.02
74675;BME280;63200;48.810;12.352;2023-12-04T11:01:15;97292.75;;;-4.80;65.65
74675;BME280;63200;48.810;12.352;2023-12-04T11:03:48;97290.25;;;-5.31;67.35
74675;BME280;63200;48.810;12.352;2023-12-04T11:06:16;97286.66;;;-5.60;69.53
74675;BME280;63200;48.810;12.352;2023-12-04T11:08:42;97285.22;;;-6.14;72.62
74675;BME280;63200;48.810;12.352;2023-12-04T11:11:21;97296.59;;;-6.29;75.79
74675;BME280;63200;48.810;12.352;2023-12-04T11:13:50;97296.13;;;-6.47;77.90
74675;BME280;63200;48.810;12.352;2023-12-04T11:16:34;97294.69;;;-6.50;80.50
74675;BME280;63200;48.810;12.352;2023-12-04T11:19:10;97306.22;;;-6.66;81.62
74675;BME280;63200;48.810;12.352;2023-12-04T11:21:39;97297.72;;;-6.76;84.33
74675;BME280;63200;48.810;12.352;2023-12-04T11:24:05;97300.31;;;-6.68;84.89
74675;BME280;63200;48.810;12.352;2023-12-04T11:26:32;97296.66;;;-6.67;84.60
74675;BME280;63200;48.810;12.352;2023-12-04T11:28:57;97291.03;;;-6.64;85.16
74675;BME280;63200;48.810;12.352;2023-12-04T11:31:24;97276.84;;;-6.48;84.20
74675;BME280;63200;48.810;12.352;2023-12-04T11:33:49;97271.00;;;-6.43;82.61
74675;BME280;63200;48.810;12.352;2023-12-04T11:36:15;97269.47;;;-6.38;83.39
74675;BME280;63200;48.810;12.352;2023-12-04T11:38:46;97259.06;;;-6.39;84.22
74675;BME280;63200;48.810;12.352;2023-12-04T11:41:21;97262.34;;;-6.37;84.94
74675;BME280;63200;48.810;12.352;2023-12-04T11:43:47;97247.97;;;-6.34;85.17
74675;BME280;63200;48.810;12.352;2023-12-04T11:46:14;97240.50;;;-6.16;84.85
74675;BME280;63200;48.810;12.352;2023-12-04T11:48:47;97230.91;;;-6.17;88.15
74675;BME280;63200;48.810;12.352;2023-12-04T11:51:15;97172.81;;;-6.47;85.33
74675;BME280;63200;48.810;12.352;2023-12-04T11:54:00;97220.16;;;-6.15;88.41
74675;BME280;63200;48.810;12.352;2023-12-04T11:56:25;97221.88;;;-5.86;90.13
74675;BME280;63200;48.810;12.352;2023-12-04T11:58:50;97200.56;;;-5.84;86.70
74675;BME280;63200;48.810;12.352;2023-12-04T12:01:17;97193.66;;;-6.22;88.45
74675;BME280;63200;48.810;12.352;2023-12-04T12:03:43;97192.88;;;-6.01;88.39
74675;BME280;63200;48.810;12.352;2023-12-04T12:06:09;97180.34;;;-6.14;89.21
74675;BME280;63200;48.810;12.352;2023-12-04T12:08:34;97193.03;;;-6.24;89.98
74675;BME280;63200;48.810;12.352;2023-12-04T12:11:00;97190.66;;;-6.19;89.66
74675;BME280;63200;48.810;12.352;2023-12-04T12:13:25;97194.84;;;-6.10;91.52
74675;BME280;63200;48.810;12.352;2023-12-04T12:15:51;97187.09;;;-6.26;93.14
74675;BME280;63200;48.810;12.352;2023-12-04T12:18:17;97199.94;;;-6.08;94.24
74675;BME280;63200;48.810;12.352;2023-12-04T12:20:43;97199.22;;;-5.95;94.20
74675;BME280;63200;48.810;12.352;2023-12-04T12:23:08;97213.59;;;-5.83;93.98
74675;BME280;63200;48.810;12.352;2023-12-04T12:25:37;97198.41;;;-5.96;91.25
74675;BME280;63200;48.810;12.352;2023-12-04T12:28:04;97184.50;;;-6.05;91.08
74675;BME280;63200;48.810;12.352;2023-12-04T12:30:30;97189.78;;;-6.05;92.71
74675;BME280;63200;48.810;12.352;2023-12-04T12:32:56;97180.31;;;-5.99;91.77